Finlandia — OJPP — position and weather

sailwx.info

Track history (hours):
 
Tides and Currents Weather Stations Pressure Air Temp Water Temp Dewpoint Dewpoint Depression Visibility Wind Speed Wind Dir Waves Ship Positions

Finlandia

Last reported at 2017-Jan-20 17:20 UTC. Time now 2017-Jan-20 22:05 UTC.
Position N 59°33' E 024°44'.

Length 175 m; draft 7 m.

Type: Passenger vessel. MMSI: 230628000.

Date/timePositionNaut miles runAvg speedWind from/ knotsBaromVisibWave heightAir tempDewpointWater temp
2017-Jan-20 17:20N 59°33' E 024°44'6 7.9
2017-Jan-20 16:33N 59°27' E 024°46'1 1.0
2017-Jan-20 15:33N 59°28' E 024°47'5 1.0
2017-Jan-20 10:24N 59°32' E 024°44'6 6.2
2017-Jan-20 09:29N 59°27' E 024°46'2 2.6
2017-Jan-20 08:33N 59°29' E 024°45'3 0.4
2017-Jan-20 01:10N 59°32' E 024°44'5 8.8
2017-Jan-20 00:33N 59°27' E 024°46'0 0.1
2017-Jan-19 23:28N 59°27' E 024°46'6 6.4
2017-Jan-19 22:33N 59°32' E 024°43'1 0.2
2017-Jan-19 17:28N 59°32' E 024°45'5 5.5
2017-Jan-19 16:33N 59°27' E 024°46'2 2.2
2017-Jan-19 15:33N 59°29' E 024°46'3024.7
2017-Jan-19 14:21N 59°59' E 024°54'28 7.0
2017-Jan-19 10:18N 59°31' E 024°45'4 4.9
2017-Jan-19 09:30N 59°27' E 024°46'4 4.2
2017-Jan-19 08:34N 59°31' E 024°44'2 0.2
2017-Jan-19 01:16N 59°32' E 024°44'6 7.8
2017-Jan-19 00:33N 59°27' E 024°46'0 0.0
2017-Jan-18 23:26N 59°27' E 024°46'4 4.9
2017-Jan-18 22:32N 59°31' E 024°44'2 0.3
2017-Jan-18 17:27N 59°33' E 024°44'6 6.5
2017-Jan-18 16:33N 59°27' E 024°46'1 1.0
2017-Jan-18 15:33N 59°28' E 024°47'4 0.9
2017-Jan-18 10:31N 59°32' E 024°44'5 5.0
2017-Jan-18 09:30N 59°27' E 024°46'5 4.9
2017-Jan-18 08:30N 59°31' E 024°43'2 0.1
2017-Jan-17 17:22N 59°33' E 024°44'6 7.3
2017-Jan-17 16:30N 59°27' E 024°46'2 1.9
2017-Jan-17 15:32N 59°29' E 024°46'2821.2
2017-Jan-17 14:14N 59°56' E 024°53'24 6.4
2017-Jan-17 10:26N 59°32' E 024°44'5 5.3
2017-Jan-17 09:25N 59°27' E 024°46'5 5.4
2017-Jan-17 08:32N 59°31' E 024°43'1 0.0
2017-Jan-16 17:15N 59°32' E 024°44'5 5.7
2017-Jan-16 16:23N 59°27' E 024°46'2 2.2
2017-Jan-16 15:34N 59°29' E 024°46'3 0.7
2017-Jan-16 10:20N 59°32' E 024°44'5 6.8
2017-Jan-16 09:33N 59°27' E 024°46'5 5.0
2017-Jan-16 08:31N 59°32' E 024°43'29 2.1
2017-Jan-15 18:31N 60°01' E 024°54'3416.6
2017-Jan-15 16:28N 59°27' E 024°46'1 1.0
2017-Jan-15 15:33N 59°27' E 024°47'4 0.8
2017-Jan-15 10:11N 59°31' E 024°45'4 7.0
2017-Jan-15 09:33N 59°27' E 024°46'6 0.3
2017-Jan-14 17:04N 59°32' E 024°44'6 6.2
2017-Jan-14 16:10N 59°27' E 024°46'1 1.0
2017-Jan-14 15:33N 59°27' E 024°47'5 0.8
2017-Jan-14 10:10N 59°31' E 024°45'5 7.7
2017-Jan-14 09:33N 59°27' E 024°46'4 3.8
2017-Jan-14 08:33N 59°30' E 024°44'4 0.4
2017-Jan-13 23:33N 59°27' E 024°46'1 0.6
2017-Jan-13 22:33N 59°27' E 024°47'1 0.1
2017-Jan-13 16:33N 59°27' E 024°46'3 2.5
2017-Jan-13 15:33N 59°29' E 024°45'2 0.5
2017-Jan-13 10:22N 59°32' E 024°45'5 6.0
2017-Jan-13 09:33N 59°27' E 024°46'2 2.2
2017-Jan-13 08:33N 59°29' E 024°46'3 0.4
2017-Jan-13 00:31N 59°32' E 024°44'5 5.6
2017-Jan-12 23:33N 59°27' E 024°46'1 0.7
2017-Jan-12 22:34N 59°27' E 024°47'5 0.9
2017-Jan-12 17:07N 59°32' E 024°44'5 9.4
2017-Jan-12 16:33N 59°27' E 024°46'2 2.3
2017-Jan-12 15:33N 59°29' E 024°46'3 0.6
2017-Jan-12 10:18N 59°32' E 024°44'5 6.9
2017-Jan-12 09:33N 59°27' E 024°46'6 5.7
2017-Jan-12 08:27N 59°33' E 024°42'1 0.1
2017-Jan-12 00:32N 59°32' E 024°44'6 5.7
2017-Jan-11 23:33N 59°27' E 024°46'1 0.6
2017-Jan-11 22:33N 59°27' E 024°47'5 0.9
2017-Jan-11 17:08N 59°32' E 024°44'5 8.6
2017-Jan-11 16:33N 59°27' E 024°46'1 1.0
2017-Jan-11 15:31N 59°28' E 024°47'4 0.8
2017-Jan-11 10:13N 59°31' E 024°45'5 7.2
2017-Jan-11 09:33N 59°27' E 024°46'4 3.5
2017-Jan-11 08:32N 59°30' E 024°44'32 2.2
2017-Jan-10 18:30N 60°01' E 024°55'2021.4
2017-Jan-10 17:33N 59°42' E 024°46'  
Track history (hours):
 
Tides and Currents Weather Stations Pressure Air Temp Water Temp Dewpoint Dewpoint Depression Visibility Wind Speed Wind Dir Waves Ship Positions

Finlandia

Last reported at 2017-Jan-20 17:20 UTC. Time now 2017-Jan-20 22:05 UTC.
Position N 59°33' E 024°44'.

Length 175 m; draft 7 m.

Type: Passenger vessel. MMSI: 230628000.

Date/timePositionNaut miles runAvg speedWind from/ knotsBaromVisibWave heightAir tempDewpointWater temp
2017-Jan-20 17:20N 59°33' E 024°44'6 7.9
2017-Jan-20 16:33N 59°27' E 024°46'1 1.0
2017-Jan-20 15:33N 59°28' E 024°47'5 1.0
2017-Jan-20 10:24N 59°32' E 024°44'6 6.2
2017-Jan-20 09:29N 59°27' E 024°46'2 2.6
2017-Jan-20 08:33N 59°29' E 024°45'3 0.4
2017-Jan-20 01:10N 59°32' E 024°44'5 8.8
2017-Jan-20 00:33N 59°27' E 024°46'0 0.1
2017-Jan-19 23:28N 59°27' E 024°46'6 6.4
2017-Jan-19 22:33N 59°32' E 024°43'1 0.2
2017-Jan-19 17:28N 59°32' E 024°45'5 5.5
2017-Jan-19 16:33N 59°27' E 024°46'2 2.2
2017-Jan-19 15:33N 59°29' E 024°46'3024.7
2017-Jan-19 14:21N 59°59' E 024°54'28 7.0
2017-Jan-19 10:18N 59°31' E 024°45'4 4.9
2017-Jan-19 09:30N 59°27' E 024°46'4 4.2
2017-Jan-19 08:34N 59°31' E 024°44'2 0.2
2017-Jan-19 01:16N 59°32' E 024°44'6 7.8
2017-Jan-19 00:33N 59°27' E 024°46'0 0.0
2017-Jan-18 23:26N 59°27' E 024°46'4 4.9
2017-Jan-18 22:32N 59°31' E 024°44'2 0.3
2017-Jan-18 17:27N 59°33' E 024°44'6 6.5
2017-Jan-18 16:33N 59°27' E 024°46'1 1.0
2017-Jan-18 15:33N 59°28' E 024°47'4 0.9
2017-Jan-18 10:31N 59°32' E 024°44'5 5.0
2017-Jan-18 09:30N 59°27' E 024°46'5 4.9
2017-Jan-18 08:30N 59°31' E 024°43'2 0.1
2017-Jan-17 17:22N 59°33' E 024°44'6 7.3
2017-Jan-17 16:30N 59°27' E 024°46'2 1.9
2017-Jan-17 15:32N 59°29' E 024°46'2821.2
2017-Jan-17 14:14N 59°56' E 024°53'24 6.4
2017-Jan-17 10:26N 59°32' E 024°44'5 5.3
2017-Jan-17 09:25N 59°27' E 024°46'5 5.4
2017-Jan-17 08:32N 59°31' E 024°43'1 0.0
2017-Jan-16 17:15N 59°32' E 024°44'5 5.7
2017-Jan-16 16:23N 59°27' E 024°46'2 2.2
2017-Jan-16 15:34N 59°29' E 024°46'3 0.7
2017-Jan-16 10:20N 59°32' E 024°44'5 6.8
2017-Jan-16 09:33N 59°27' E 024°46'5 5.0
2017-Jan-16 08:31N 59°32' E 024°43'29 2.1
2017-Jan-15 18:31N 60°01' E 024°54'3416.6
2017-Jan-15 16:28N 59°27' E 024°46'1 1.0
2017-Jan-15 15:33N 59°27' E 024°47'4 0.8
2017-Jan-15 10:11N 59°31' E 024°45'4 7.0
2017-Jan-15 09:33N 59°27' E 024°46'6 0.3
2017-Jan-14 17:04N 59°32' E 024°44'6 6.2
2017-Jan-14 16:10N 59°27' E 024°46'1 1.0
2017-Jan-14 15:33N 59°27' E 024°47'5 0.8
2017-Jan-14 10:10N 59°31' E 024°45'5 7.7
2017-Jan-14 09:33N 59°27' E 024°46'4 3.8
2017-Jan-14 08:33N 59°30' E 024°44'4 0.4
2017-Jan-13 23:33N 59°27' E 024°46'1 0.6
2017-Jan-13 22:33N 59°27' E 024°47'1 0.1
2017-Jan-13 16:33N 59°27' E 024°46'3 2.5
2017-Jan-13 15:33N 59°29' E 024°45'2 0.5
2017-Jan-13 10:22N 59°32' E 024°45'5 6.0
2017-Jan-13 09:33N 59°27' E 024°46'2 2.2
2017-Jan-13 08:33N 59°29' E 024°46'3 0.4
2017-Jan-13 00:31N 59°32' E 024°44'5 5.6
2017-Jan-12 23:33N 59°27' E 024°46'1 0.7
2017-Jan-12 22:34N 59°27' E 024°47'5 0.9
2017-Jan-12 17:07N 59°32' E 024°44'5 9.4
2017-Jan-12 16:33N 59°27' E 024°46'2 2.3
2017-Jan-12 15:33N 59°29' E 024°46'3 0.6
2017-Jan-12 10:18N 59°32' E 024°44'5 6.9
2017-Jan-12 09:33N 59°27' E 024°46'6 5.7
2017-Jan-12 08:27N 59°33' E 024°42'1 0.1
2017-Jan-12 00:32N 59°32' E 024°44'6 5.7
2017-Jan-11 23:33N 59°27' E 024°46'1 0.6
2017-Jan-11 22:33N 59°27' E 024°47'5 0.9
2017-Jan-11 17:08N 59°32' E 024°44'5 8.6
2017-Jan-11 16:33N 59°27' E 024°46'1 1.0
2017-Jan-11 15:31N 59°28' E 024°47'4 0.8
2017-Jan-11 10:13N 59°31' E 024°45'5 7.2
2017-Jan-11 09:33N 59°27' E 024°46'4 3.5
2017-Jan-11 08:32N 59°30' E 024°44'32 2.2
2017-Jan-10 18:30N 60°01' E 024°55'2021.4
2017-Jan-10 17:33N 59°42' E 024°46'  

Dump ship's entire track history